Kezdőlap
METAR-TAF:

METAR-TAF

Repülőterek :

Chiredzi, Zimbabwe

földrajzi szélesség: 21-01S, földrajzi hosszúság: 031-35E, magasság: 429 m

Jelenlegi meteorológiai megfigyelések

A jelentés 2 órával és 2 perccel ezelõtt készült, 06:00 UTC
Szélcsend
Hőmérséklet 17°C
Páratartalom 94%
Légköri nyomás 1028 hPa
Látótávolság: 4000 m
Borult 800 lábon
Száraz légköri homály,

METAR: FVCZ 280600Z 00000KT 4000 HZ OVC008 17/16 Q1028

Idő: 10:02 (08:02 UTC)


TAF: hiányzik

Meteorológiai megfigyelések és előrejelzések több, mint 4000 repülőtéren (METAR és TAF jelentéseket).

A térképen piros és sárga pontok jelzik az elérhető meteorológiai állomásokat.

Mozgassa az egeret a pont fölött, hogy megjelenjen az állomás neve.

Azután kattintson az időjárási megfigyelések és előrejelzések megtekintéséhez.

A térkép megváltoztatása: kattintson a fekete keresztel jelölt zöld gombra ráközelítéshez, a vonallal jelölt zöld gombra távolításhoz, vagy a zöld nyilakra a szomszédos térképek eléréséhez.


METAR-TAF: